createdAt,value
2022-11-26T00:00:53.778Z,94736.72
2022-11-26T00:03:20.942Z,94732.38
2022-11-26T00:05:50.930Z,94737.50
2022-11-26T00:08:20.352Z,94733.78
2022-11-26T00:10:49.483Z,94730.28
2022-11-26T00:13:18.519Z,94742.00
2022-11-26T00:15:45.250Z,94742.16
2022-11-26T00:18:13.144Z,94745.38
2022-11-26T00:20:40.194Z,94746.47
2022-11-26T00:23:07.415Z,94747.78
2022-11-26T00:25:40.228Z,94751.44
2022-11-26T00:28:24.448Z,94755.94
2022-11-26T00:30:51.190Z,94757.34
2022-11-26T00:33:17.923Z,94758.34
2022-11-26T00:35:46.970Z,94767.50
2022-11-26T00:38:17.791Z,94764.09
2022-11-26T00:40:44.522Z,94763.78
2022-11-26T00:43:16.103Z,94771.13
2022-11-26T00:45:42.953Z,94769.53
2022-11-26T00:48:09.706Z,94770.63
2022-11-26T00:50:42.655Z,94776.56
2022-11-26T00:53:12.877Z,94778.53
2022-11-26T00:55:42.340Z,94788.19
2022-11-26T00:58:34.121Z,94781.75
2022-11-26T01:01:00.833Z,94790.25
2022-11-26T01:03:27.600Z,94788.78
2022-11-26T01:05:56.733Z,94795.56
2022-11-26T01:08:36.183Z,94784.97
2022-11-26T01:11:04.533Z,94792.19
2022-11-26T01:13:31.774Z,94797.94
2022-11-26T01:16:00.463Z,94784.97
2022-11-26T01:18:27.392Z,94801.00
2022-11-26T01:20:54.106Z,94801.81
2022-11-26T01:23:20.926Z,94790.25
2022-11-26T01:25:47.821Z,94797.16
2022-11-26T01:28:17.611Z,94806.56
2022-11-26T01:30:45.006Z,94793.28
2022-11-26T01:33:11.739Z,94789.75
2022-11-26T01:35:38.603Z,94778.97
2022-11-26T01:38:05.538Z,94799.25
2022-11-26T01:40:47.041Z,94796.44
2022-11-26T01:43:25.163Z,94794.53
2022-11-26T01:45:51.892Z,94794.97
2022-11-26T01:48:32.893Z,94799.16
2022-11-26T01:51:12.584Z,94791.25
2022-11-26T01:53:42.267Z,94806.88
2022-11-26T01:56:22.672Z,94804.13
2022-11-26T01:58:54.063Z,94805.28
2022-11-26T02:01:21.220Z,94808.97
2022-11-26T02:04:17.932Z,94810.28
2022-11-26T02:06:47.190Z,94810.06
2022-11-26T02:09:14.397Z,94818.94
2022-11-26T02:11:41.253Z,94815.41
2022-11-26T02:14:12.790Z,94821.78
2022-11-26T02:16:47.608Z,94817.63
2022-11-26T02:19:32.614Z,94820.94
2022-11-26T02:22:43.942Z,94824.00
2022-11-26T02:25:13.311Z,94828.84
2022-11-26T02:27:57.933Z,94829.97
2022-11-26T02:30:24.723Z,94828.53
2022-11-26T02:33:36.147Z,94840.84
2022-11-26T02:36:09.843Z,94840.31
2022-11-26T02:38:38.328Z,94838.28
2022-11-26T02:41:05.149Z,94844.63
2022-11-26T02:43:33.123Z,94842.56
2022-11-26T02:46:02.268Z,94846.44
2022-11-26T02:48:32.533Z,94854.41
2022-11-26T02:51:02.397Z,94858.72
2022-11-26T02:53:31.658Z,94858.44
2022-11-26T02:56:04.025Z,94850.28
2022-11-26T02:58:31.572Z,94859.94
2022-11-26T03:00:59.790Z,94864.72
2022-11-26T03:03:33.289Z,94858.25
2022-11-26T03:06:03.196Z,94872.06
2022-11-26T03:08:31.324Z,94870.16
2022-11-26T03:10:58.144Z,94858.00
2022-11-26T03:13:24.943Z,94864.44
2022-11-26T03:15:51.754Z,94856.44
2022-11-26T03:18:18.492Z,94863.50
2022-11-26T03:20:45.134Z,94867.97
2022-11-26T03:23:11.839Z,94863.78
2022-11-26T03:25:38.614Z,94863.47
2022-11-26T03:28:05.625Z,94863.78
2022-11-26T03:30:32.446Z,94854.03
2022-11-26T03:32:59.043Z,94846.47
2022-11-26T03:35:25.670Z,94845.53
2022-11-26T03:37:52.324Z,94856.59
2022-11-26T03:40:19.535Z,94861.28
2022-11-26T03:42:46.174Z,94863.03
2022-11-26T03:45:13.222Z,94855.53
2022-11-26T03:47:40.087Z,94856.97
2022-11-26T03:50:07.640Z,94860.34
2022-11-26T03:52:34.654Z,94874.47
2022-11-26T03:55:01.252Z,94880.94
2022-11-26T03:57:27.891Z,94876.84
2022-11-26T03:59:54.603Z,94869.84
2022-11-26T04:02:21.365Z,94866.03
2022-11-26T04:04:48.056Z,94877.91
2022-11-26T04:07:14.854Z,94876.81
2022-11-26T04:09:41.485Z,94873.53
2022-11-26T04:12:08.203Z,94878.72
2022-11-26T04:14:34.932Z,94879.91
2022-11-26T04:17:01.720Z,94881.00
2022-11-26T04:19:28.401Z,94888.25
2022-11-26T04:21:55.124Z,94889.06
2022-11-26T04:24:21.750Z,94889.06
2022-11-26T04:26:48.494Z,94899.31
2022-11-26T04:29:15.154Z,94901.41
2022-11-26T04:31:41.947Z,94904.47
2022-11-26T04:34:08.644Z,94910.41
2022-11-26T04:36:35.293Z,94911.06
2022-11-26T04:39:01.965Z,94900.50
2022-11-26T04:41:28.662Z,94903.41
2022-11-26T04:43:55.307Z,94914.34
2022-11-26T04:46:22.157Z,94921.41
2022-11-26T04:48:48.913Z,94922.25
2022-11-26T04:51:15.625Z,94927.03
2022-11-26T04:53:42.344Z,94928.44
2022-11-26T04:56:09.097Z,94927.63
2022-11-26T04:58:36.074Z,94935.19
2022-11-26T05:01:02.892Z,94931.50
2022-11-26T05:03:30.063Z,94933.41
2022-11-26T05:05:56.794Z,94928.28
2022-11-26T05:08:23.549Z,94933.66
2022-11-26T05:10:58.442Z,94928.66
2022-11-26T05:13:25.111Z,94928.00
2022-11-26T05:15:51.801Z,94938.63
2022-11-26T05:18:18.441Z,94933.72
2022-11-26T05:20:44.995Z,94938.91
2022-11-26T05:23:11.746Z,94935.97
2022-11-26T05:25:38.446Z,94937.03
2022-11-26T05:28:05.180Z,94941.19
2022-11-26T05:30:32.117Z,94937.97
2022-11-26T05:32:58.726Z,94938.47
2022-11-26T05:35:25.392Z,94947.13
2022-11-26T05:37:52.077Z,94940.22
2022-11-26T05:40:18.802Z,94943.25
2022-11-26T05:42:45.376Z,94938.78
2022-11-26T05:45:12.044Z,94949.53
2022-11-26T05:47:38.629Z,94950.78
2022-11-26T05:50:05.772Z,94948.41
2022-11-26T05:52:32.376Z,94955.66
2022-11-26T05:54:58.923Z,94952.09
2022-11-26T05:57:25.536Z,94960.47
2022-11-26T05:59:52.107Z,94963.41
2022-11-26T06:02:18.827Z,94965.66
2022-11-26T06:04:45.487Z,94967.91
2022-11-26T06:07:12.120Z,94967.97
2022-11-26T06:09:38.828Z,94975.31
2022-11-26T06:12:05.706Z,94976.56
2022-11-26T06:14:32.434Z,94970.00
2022-11-26T06:16:59.242Z,94975.59
2022-11-26T06:19:25.900Z,94980.09
2022-11-26T06:21:52.484Z,94983.97
2022-11-26T06:24:19.148Z,94981.38
2022-11-26T06:26:45.707Z,94985.72
2022-11-26T06:29:13.245Z,94980.09
2022-11-26T06:31:39.863Z,94977.94
2022-11-26T06:34:06.495Z,94993.97
2022-11-26T06:36:33.104Z,95007.78
2022-11-26T06:38:59.690Z,95012.75
2022-11-26T06:41:26.246Z,95011.44
2022-11-26T06:43:52.844Z,95014.16
2022-11-26T06:46:19.503Z,95021.41
2022-11-26T06:48:46.149Z,95024.78
2022-11-26T06:51:14.933Z,95033.44
2022-11-26T06:53:41.807Z,95033.97
2022-11-26T06:56:17.737Z,95032.97
2022-11-26T06:58:46.627Z,95042.56
2022-11-26T07:01:17.483Z,95040.06
2022-11-26T07:03:44.501Z,95053.94
2022-11-26T07:06:17.875Z,95049.91
2022-11-26T07:08:44.996Z,95053.94
2022-11-26T07:11:11.762Z,95060.09
2022-11-26T07:13:38.423Z,95063.81
2022-11-26T07:16:05.877Z,95065.09
2022-11-26T07:18:32.721Z,95062.22
2022-11-26T07:21:05.653Z,95070.66
2022-11-26T07:23:32.237Z,95064.06
2022-11-26T07:26:00.056Z,95075.50
2022-11-26T07:28:26.886Z,95075.34
2022-11-26T07:30:53.586Z,95073.94
2022-11-26T07:33:20.189Z,95080.03
2022-11-26T07:35:46.784Z,95082.94
2022-11-26T07:38:13.346Z,95083.44
2022-11-26T07:40:39.858Z,95086.22
2022-11-26T07:43:06.473Z,95081.38
2022-11-26T07:45:36.267Z,95084.63
2022-11-26T07:48:03.600Z,95093.00
2022-11-26T07:50:30.954Z,95094.00
2022-11-26T07:52:57.727Z,95089.81
2022-11-26T07:55:24.353Z,95079.19
2022-11-26T07:57:51.027Z,95085.66
2022-11-26T08:00:18.341Z,95085.00
2022-11-26T08:02:45.009Z,95089.50
2022-11-26T08:05:11.622Z,95087.72
2022-11-26T08:07:38.262Z,95093.22
2022-11-26T08:10:05.465Z,95088.47
2022-11-26T08:12:32.043Z,95075.75
2022-11-26T08:14:58.640Z,95081.69
2022-11-26T08:17:25.299Z,95083.25
2022-11-26T08:19:51.964Z,95091.47
2022-11-26T08:22:18.596Z,95077.00
2022-11-26T08:24:45.162Z,95089.44
2022-11-26T08:27:11.989Z,95084.31
2022-11-26T08:29:38.590Z,95089.16
2022-11-26T08:32:05.348Z,95086.28
2022-11-26T08:34:33.220Z,95089.78
2022-11-26T08:36:59.933Z,95097.78
2022-11-26T08:39:26.616Z,95111.19
2022-11-26T08:41:53.295Z,95117.34
2022-11-26T08:44:20.518Z,95130.53
2022-11-26T08:46:47.441Z,95148.69
2022-11-26T08:49:18.020Z,95158.22
2022-11-26T08:51:44.944Z,95155.03
2022-11-26T08:54:12.628Z,95156.66
2022-11-26T08:56:40.174Z,95163.34
2022-11-26T08:59:06.759Z,95172.88
2022-11-26T09:01:34.230Z,95172.53
2022-11-26T09:04:03.186Z,95182.56
2022-11-26T09:06:31.373Z,95184.44
2022-11-26T09:09:13.874Z,95187.75
2022-11-26T09:11:40.733Z,95189.00
2022-11-26T09:14:07.569Z,95195.34
2022-11-26T09:16:34.478Z,95194.41
2022-11-26T09:19:01.690Z,95200.13
2022-11-26T09:21:28.961Z,95199.88
2022-11-26T09:23:55.730Z,95196.03
2022-11-26T09:26:22.881Z,95195.59
2022-11-26T09:28:49.630Z,95198.75
2022-11-26T09:31:16.860Z,95210.03
2022-11-26T09:33:44.367Z,95199.63
2022-11-26T09:36:14.019Z,95196.75
2022-11-26T09:38:40.974Z,95203.56
2022-11-26T09:41:35.549Z,95210.31
2022-11-26T09:44:17.031Z,95212.22
2022-11-26T09:47:11.703Z,95195.50
2022-11-26T09:50:13.781Z,95198.88
2022-11-26T09:52:47.289Z,95184.13
2022-11-26T09:55:17.751Z,95190.91
2022-11-26T09:58:12.134Z,95183.56
2022-11-26T10:00:49.919Z,95189.91
2022-11-26T10:03:25.869Z,95189.69
2022-11-26T10:05:52.496Z,95189.97
2022-11-26T10:08:28.540Z,95204.31
2022-11-26T10:11:17.508Z,95178.03
2022-11-26T10:13:59.544Z,95190.69
2022-11-26T10:16:42.591Z,95183.84
2022-11-26T10:19:22.691Z,95184.78
2022-11-26T10:22:00.390Z,95187.75
2022-11-26T10:24:31.062Z,95191.97
2022-11-26T10:27:00.924Z,95187.03
2022-11-26T10:29:35.530Z,95187.28
2022-11-26T10:32:11.749Z,95191.44
2022-11-26T10:34:50.143Z,95190.81
2022-11-26T10:37:17.201Z,95183.06
2022-11-26T10:39:43.971Z,95180.06
2022-11-26T10:42:21.815Z,95182.16
2022-11-26T10:44:50.447Z,95174.84
2022-11-26T10:47:24.411Z,95186.56
2022-11-26T10:49:53.472Z,95180.72
2022-11-26T10:52:27.187Z,95168.25
2022-11-26T10:55:29.560Z,95160.03
2022-11-26T10:58:08.231Z,95169.50
2022-11-26T11:00:37.530Z,95174.63
2022-11-26T11:03:44.611Z,95166.53
2022-11-26T11:06:33.458Z,95172.78
2022-11-26T11:09:00.149Z,95169.88
2022-11-26T11:11:28.893Z,95176.38
2022-11-26T11:13:55.890Z,95167.47
2022-11-26T11:16:29.154Z,95170.09
2022-11-26T11:18:57.977Z,95175.44
2022-11-26T11:21:37.841Z,95180.78
2022-11-26T11:24:11.075Z,95181.84
2022-11-26T11:26:46.132Z,95186.00
2022-11-26T11:29:34.884Z,95180.13
2022-11-26T11:32:04.521Z,95180.59
2022-11-26T11:34:39.234Z,95178.97
2022-11-26T11:37:14.761Z,95194.38
2022-11-26T11:39:42.635Z,95196.66
2022-11-26T11:42:32.359Z,95191.28
2022-11-26T11:45:00.428Z,95200.34
2022-11-26T11:47:48.844Z,95201.44
2022-11-26T11:50:29.456Z,95205.41
2022-11-26T11:53:14.589Z,95190.41
2022-11-26T11:56:11.790Z,95191.06
2022-11-26T11:58:57.079Z,95183.16
2022-11-26T12:01:43.532Z,95182.81
2022-11-26T12:04:32.117Z,95187.47
2022-11-26T12:07:05.129Z,95184.63
2022-11-26T12:09:37.071Z,95161.88
2022-11-26T12:12:18.360Z,95177.78
2022-11-26T12:14:50.871Z,95182.69
2022-11-26T12:18:00.863Z,95175.00
2022-11-26T12:20:35.298Z,95177.25
2022-11-26T12:23:27.818Z,95172.25
2022-11-26T12:26:17.499Z,95176.88
2022-11-26T12:29:03.990Z,95179.28
2022-11-26T12:31:41.556Z,95179.47
2022-11-26T12:34:16.053Z,95170.44
2022-11-26T12:36:55.937Z,95176.97
2022-11-26T12:39:59.211Z,95178.66
2022-11-26T12:42:34.031Z,95172.16
2022-11-26T12:45:17.911Z,95165.91
2022-11-26T12:47:54.511Z,95171.19
2022-11-26T12:50:27.891Z,95171.63
2022-11-26T12:53:19.324Z,95162.75
2022-11-26T12:55:56.402Z,95157.84
2022-11-26T12:58:28.695Z,95170.00
2022-11-26T13:00:57.054Z,95174.94
2022-11-26T13:03:33.410Z,95176.59
2022-11-26T13:06:35.851Z,95174.84
2022-11-26T13:09:40.874Z,95175.63
2022-11-26T13:12:46.762Z,95180.97
2022-11-26T13:15:27.083Z,95184.75
2022-11-26T13:17:54.831Z,95174.56
2022-11-26T13:20:49.600Z,95177.72
2022-11-26T13:23:41.102Z,95177.84
2022-11-26T13:26:42.436Z,95182.41
2022-11-26T13:29:28.767Z,95165.81
2022-11-26T13:32:13.377Z,95165.19
2022-11-26T13:35:00.915Z,95173.00
2022-11-26T13:38:15.248Z,95169.03
2022-11-26T13:41:13.528Z,95168.13
2022-11-26T13:43:45.871Z,95172.69
2022-11-26T13:46:22.996Z,95177.34
2022-11-26T13:49:20.885Z,95184.94
2022-11-26T13:51:50.951Z,95191.25
2022-11-26T13:54:26.292Z,95188.19
2022-11-26T13:57:15.305Z,95195.09
2022-11-26T13:59:50.466Z,95188.25
2022-11-26T14:02:36.606Z,95195.94
2022-11-26T14:05:09.397Z,95199.22
2022-11-26T14:07:36.486Z,95199.72
2022-11-26T14:10:05.701Z,95197.94
2022-11-26T14:13:03.689Z,95200.16
2022-11-26T14:15:43.071Z,95195.94
2022-11-26T14:18:11.890Z,95191.81
2022-11-26T14:20:59.908Z,95185.16
2022-11-26T14:23:42.970Z,95192.63
2022-11-26T14:26:13.511Z,95190.56
2022-11-26T14:28:40.257Z,95185.75
2022-11-26T14:31:28.146Z,95195.50
2022-11-26T14:33:57.069Z,95202.28
2022-11-26T14:36:25.016Z,95203.00
2022-11-26T14:39:08.203Z,95197.22
2022-11-26T14:41:51.169Z,95197.84
2022-11-26T14:44:19.150Z,95208.16
2022-11-26T14:46:51.227Z,95208.84
2022-11-26T14:49:21.041Z,95213.13
2022-11-26T14:51:51.058Z,95216.78
2022-11-26T14:54:33.122Z,95206.28
2022-11-26T14:57:08.256Z,95194.69
2022-11-26T14:59:35.168Z,95196.28
2022-11-26T15:02:01.901Z,95197.88
2022-11-26T15:04:31.040Z,95200.19
2022-11-26T15:06:58.817Z,95195.03
2022-11-26T15:09:27.618Z,95184.97
2022-11-26T15:12:15.180Z,95204.03
2022-11-26T15:14:54.724Z,95207.91
2022-11-26T15:17:23.693Z,95206.16
2022-11-26T15:19:52.658Z,95195.56
2022-11-26T15:22:20.794Z,95204.13
2022-11-26T15:24:54.401Z,95200.78
2022-11-26T15:27:36.179Z,95194.19
2022-11-26T15:30:04.686Z,95194.03
2022-11-26T15:32:33.101Z,95190.41
2022-11-26T15:35:02.533Z,95181.25
2022-11-26T15:37:29.569Z,95190.03
2022-11-26T15:40:25.423Z,95197.13
2022-11-26T15:43:01.398Z,95196.34
2022-11-26T15:45:38.974Z,95198.44
2022-11-26T15:48:07.461Z,95201.81
2022-11-26T15:50:36.766Z,95209.72
2022-11-26T15:53:08.371Z,95211.06
2022-11-26T15:55:36.661Z,95201.50
2022-11-26T15:58:06.659Z,95208.59
2022-11-26T16:00:42.660Z,95204.41
2022-11-26T16:03:48.397Z,95202.31
2022-11-26T16:06:31.602Z,95219.88
2022-11-26T16:09:03.200Z,95216.66
2022-11-26T16:11:31.919Z,95215.69
2022-11-26T16:13:58.711Z,95220.88
2022-11-26T16:16:26.387Z,95222.63
2022-11-26T16:18:59.907Z,95225.84
2022-11-26T16:21:32.420Z,95223.78
2022-11-26T16:24:02.271Z,95231.34
2022-11-26T16:26:29.802Z,95231.84
2022-11-26T16:28:56.529Z,95220.88
2022-11-26T16:31:23.640Z,95224.09
2022-11-26T16:33:50.449Z,95218.75
2022-11-26T16:36:20.461Z,95218.28
2022-11-26T16:38:48.209Z,95218.44
2022-11-26T16:41:16.481Z,95214.09
2022-11-26T16:43:43.289Z,95214.41
2022-11-26T16:46:20.989Z,95226.34
2022-11-26T16:48:48.218Z,95215.72
2022-11-26T16:51:15.750Z,95223.47
2022-11-26T16:53:43.097Z,95228.78
2022-11-26T16:56:18.784Z,95217.81
2022-11-26T16:58:45.740Z,95195.47
2022-11-26T17:01:12.561Z,95213.97
2022-11-26T17:03:39.361Z,95212.84
2022-11-26T17:06:13.501Z,95223.16
2022-11-26T17:08:42.845Z,95222.19
2022-11-26T17:11:13.968Z,95222.97
2022-11-26T17:13:40.668Z,95221.53
2022-11-26T17:16:14.291Z,95221.84
2022-11-26T17:18:41.121Z,95218.78
2022-11-26T17:21:07.870Z,95230.03
2022-11-26T17:23:34.632Z,95231.19
2022-11-26T17:26:01.950Z,95226.03
2022-11-26T17:28:28.704Z,95221.69
2022-11-26T17:30:56.078Z,95228.25
2022-11-26T17:33:22.836Z,95223.75
2022-11-26T17:35:49.590Z,95222.16
2022-11-26T17:38:19.115Z,95225.53
2022-11-26T17:40:46.561Z,95231.66
2022-11-26T17:43:13.990Z,95234.22
2022-11-26T17:45:41.275Z,95228.44
2022-11-26T17:48:13.419Z,95231.81
2022-11-26T17:50:41.021Z,95226.66
2022-11-26T17:53:07.934Z,95230.84
2022-11-26T17:55:34.666Z,95237.09
2022-11-26T17:58:01.390Z,95236.97
2022-11-26T18:00:29.493Z,95236.66
2022-11-26T18:02:56.798Z,95236.00
2022-11-26T18:05:24.263Z,95243.72
2022-11-26T18:07:51.129Z,95240.84
2022-11-26T18:10:19.372Z,95242.09
2022-11-26T18:12:46.773Z,95231.63
2022-11-26T18:15:18.721Z,95236.47
2022-11-26T18:17:48.304Z,95234.84
2022-11-26T18:20:18.298Z,95243.69
2022-11-26T18:22:46.844Z,95246.09
2022-11-26T18:25:14.271Z,95244.84
2022-11-26T18:27:41.089Z,95245.00
2022-11-26T18:30:09.308Z,95245.63
2022-11-26T18:32:37.742Z,95237.56
2022-11-26T18:35:05.851Z,95249.34
2022-11-26T18:37:33.853Z,95254.28
2022-11-26T18:40:00.729Z,95251.09
2022-11-26T18:42:37.199Z,95245.59
2022-11-26T18:45:06.769Z,95248.78
2022-11-26T18:47:33.429Z,95240.06
2022-11-26T18:50:00.188Z,95240.25
2022-11-26T18:52:27.027Z,95229.31
2022-11-26T18:54:53.845Z,95243.91
2022-11-26T18:57:20.645Z,95243.59
2022-11-26T18:59:47.511Z,95249.09
2022-11-26T19:02:14.451Z,95242.69
2022-11-26T19:04:41.410Z,95245.88
2022-11-26T19:07:09.350Z,95249.59
2022-11-26T19:09:37.736Z,95250.25
2022-11-26T19:12:05.062Z,95254.59
2022-11-26T19:14:31.789Z,95259.56
2022-11-26T19:16:58.529Z,95263.75
2022-11-26T19:19:25.738Z,95265.66
2022-11-26T19:21:56.614Z,95271.63
2022-11-26T19:24:26.073Z,95264.69
2022-11-26T19:26:52.793Z,95270.13
2022-11-26T19:29:19.836Z,95273.38
2022-11-26T19:31:46.642Z,95276.91
2022-11-26T19:34:14.882Z,95272.88
2022-11-26T19:36:41.669Z,95280.59
2022-11-26T19:39:08.992Z,95273.97
2022-11-26T19:41:36.000Z,95274.78
2022-11-26T19:44:04.159Z,95267.13
2022-11-26T19:46:31.625Z,95277.75
2022-11-26T19:48:58.538Z,95277.56
2022-11-26T19:51:26.988Z,95277.22
2022-11-26T19:53:55.498Z,95285.34
2022-11-26T19:56:27.585Z,95292.59
2022-11-26T19:58:54.842Z,95290.81
2022-11-26T20:01:22.262Z,95285.13
2022-11-26T20:03:49.989Z,95285.25
2022-11-26T20:06:23.785Z,95286.31
2022-11-26T20:08:50.551Z,95298.94
2022-11-26T20:11:17.952Z,95292.47
2022-11-26T20:13:46.422Z,95299.66
2022-11-26T20:16:16.610Z,95291.63
2022-11-26T20:18:43.806Z,95299.34
2022-11-26T20:21:13.057Z,95290.66
2022-11-26T20:23:40.108Z,95291.47
2022-11-26T20:26:17.342Z,95300.28
2022-11-26T20:28:44.198Z,95290.22
2022-11-26T20:31:11.449Z,95301.59
2022-11-26T20:33:38.262Z,95295.16
2022-11-26T20:36:07.012Z,95296.09
2022-11-26T20:38:33.915Z,95294.31
2022-11-26T20:41:00.694Z,95292.41
2022-11-26T20:43:27.401Z,95292.69
2022-11-26T20:46:04.550Z,95290.94
2022-11-26T20:48:32.301Z,95283.47
2022-11-26T20:51:06.854Z,95279.38
2022-11-26T20:53:35.542Z,95279.47
2022-11-26T20:56:02.639Z,95274.00
2022-11-26T20:58:29.691Z,95275.47
2022-11-26T21:00:56.840Z,95278.69
2022-11-26T21:03:25.287Z,95279.66
2022-11-26T21:05:52.068Z,95272.81
2022-11-26T21:08:19.743Z,95274.38
2022-11-26T21:10:46.440Z,95272.91
2022-11-26T21:13:14.929Z,95272.09
2022-11-26T21:15:42.480Z,95280.22
2022-11-26T21:18:09.919Z,95276.47
2022-11-26T21:20:41.239Z,95266.81
2022-11-26T21:23:08.638Z,95276.09
2022-11-26T21:25:39.007Z,95267.63
2022-11-26T21:28:06.730Z,95267.31
2022-11-26T21:30:34.261Z,95273.75
2022-11-26T21:33:07.501Z,95255.41
2022-11-26T21:35:35.792Z,95261.69
2022-11-26T21:38:02.429Z,95251.69
2022-11-26T21:40:29.385Z,95262.16
2022-11-26T21:42:56.133Z,95250.28
2022-11-26T21:45:22.954Z,95253.13
2022-11-26T21:47:51.127Z,95243.31
2022-11-26T21:50:18.887Z,95250.78
2022-11-26T21:52:45.805Z,95257.63
2022-11-26T21:55:12.523Z,95255.38
2022-11-26T21:57:39.109Z,95254.81
2022-11-26T22:00:06.504Z,95257.94
2022-11-26T22:02:33.156Z,95257.75
2022-11-26T22:04:59.728Z,95259.00
2022-11-26T22:07:26.571Z,95260.44
2022-11-26T22:09:53.300Z,95260.72
2022-11-26T22:12:19.890Z,95261.91
2022-11-26T22:14:47.009Z,95253.75
2022-11-26T22:17:13.605Z,95261.09
2022-11-26T22:19:40.306Z,95263.94
2022-11-26T22:22:07.089Z,95268.34
2022-11-26T22:24:33.742Z,95261.84
2022-11-26T22:27:00.304Z,95255.59
2022-11-26T22:29:26.889Z,95256.94
2022-11-26T22:31:53.490Z,95262.75
2022-11-26T22:34:24.681Z,95261.94
2022-11-26T22:36:51.362Z,95256.53
2022-11-26T22:39:18.631Z,95249.22
2022-11-26T22:41:46.879Z,95256.34
2022-11-26T22:44:13.955Z,95254.47
2022-11-26T22:46:40.572Z,95260.38
2022-11-26T22:49:07.418Z,95262.28
2022-11-26T22:51:35.094Z,95253.66
2022-11-26T22:54:04.653Z,95253.38
2022-11-26T22:56:31.989Z,95241.47
2022-11-26T22:58:58.657Z,95241.88
2022-11-26T23:01:27.809Z,95261.06
2022-11-26T23:03:55.875Z,95260.59
2022-11-26T23:06:24.414Z,95256.81
2022-11-26T23:08:51.834Z,95259.69
2022-11-26T23:11:25.100Z,95264.81
2022-11-26T23:13:52.885Z,95260.47
2022-11-26T23:16:20.878Z,95260.00
2022-11-26T23:18:48.062Z,95257.75
2022-11-26T23:21:16.931Z,95251.31
2022-11-26T23:23:43.808Z,95266.56
2022-11-26T23:26:12.476Z,95262.75
2022-11-26T23:28:39.167Z,95261.13
2022-11-26T23:31:09.881Z,95257.75
2022-11-26T23:33:36.555Z,95250.88
2022-11-26T23:36:03.609Z,95265.13
2022-11-26T23:38:32.131Z,95265.94
2022-11-26T23:41:02.402Z,95264.50
2022-11-26T23:43:30.523Z,95270.03
2022-11-26T23:46:13.427Z,95267.91
2022-11-26T23:48:40.156Z,95262.47
2022-11-26T23:51:08.926Z,95259.53
2022-11-26T23:53:37.204Z,95265.34
2022-11-26T23:56:05.109Z,95267.38
2022-11-26T23:58:31.954Z,95265.47
